Terminal Aerodrome Forecast
Issued by NWS Newport/Morehead City, NC

Home | Current Version | Previous Version | Text Only | Print | Product List | Glossary On
Versions: 1 2 3 4 5 6 7 8 9 10 11 12 13 14 15 16 17 18 19
000
FTUS42 KMHX 041418 AAA
TAFEWN
TAF AMD
KEWN 041418Z 0414/0512 19005KT P6SM SCT015 BKN050
      TEMPO 0414/0416 VRB15G25KT 1SM TSRA BKN015CB
     FM041600 19010KT P6SM VCSH OVC050
     FM042100 19010KT P6SM BKN050
     FM050100 21005KT P6SM SCT250=

USA.gov is the U.S. government's official web portal to all federal, state and local government web resources and services.